createdAt,value
2018-07-05T00:01:38.522Z,99.90
2018-07-05T00:04:22.456Z,99.90
2018-07-05T00:07:04.502Z,99.90
2018-07-05T00:09:45.934Z,99.90
2018-07-05T00:12:27.530Z,99.90
2018-07-05T00:15:09.577Z,99.90
2018-07-05T00:17:51.068Z,99.90
2018-07-05T00:20:32.522Z,99.90
2018-07-05T00:23:14.225Z,99.90
2018-07-05T00:25:55.996Z,99.90
2018-07-05T00:28:37.791Z,99.90
2018-07-05T00:31:19.922Z,99.90
2018-07-05T00:34:02.735Z,99.90
2018-07-05T00:36:44.473Z,99.90
2018-07-05T00:39:26.122Z,99.90
2018-07-05T00:45:01.222Z,99.90
2018-07-05T00:47:43.601Z,99.90
2018-07-05T00:50:27.098Z,99.90
2018-07-05T00:53:08.656Z,99.90
2018-07-05T00:55:50.387Z,99.90
2018-07-05T00:58:31.823Z,99.90
2018-07-05T01:01:13.961Z,99.90
2018-07-05T01:03:56.021Z,99.90
2018-07-05T01:06:37.548Z,99.90
2018-07-05T01:09:19.482Z,99.90
2018-07-05T01:12:02.722Z,99.90
2018-07-05T01:14:54.610Z,99.90
2018-07-05T01:17:36.761Z,99.90
2018-07-05T01:20:18.355Z,99.90
2018-07-05T01:22:59.757Z,99.90
2018-07-05T01:25:41.397Z,99.90
2018-07-05T01:28:23.084Z,99.90
2018-07-05T01:31:04.597Z,99.90
2018-07-05T01:33:46.202Z,99.90
2018-07-05T01:36:27.743Z,99.90
2018-07-05T01:39:09.590Z,99.90
2018-07-05T01:41:51.102Z,99.90
2018-07-05T01:44:32.807Z,99.90
2018-07-05T01:47:14.569Z,99.90
2018-07-05T01:49:56.021Z,99.90
2018-07-05T01:52:41.369Z,99.90
2018-07-05T01:55:23.004Z,99.90
2018-07-05T01:58:04.682Z,99.90
2018-07-05T02:00:48.363Z,99.90
2018-07-05T02:03:30.098Z,99.90
2018-07-05T02:06:11.619Z,99.90
2018-07-05T02:08:54.031Z,99.90
2018-07-05T02:11:36.962Z,99.90
2018-07-05T02:14:18.580Z,99.90
2018-07-05T02:17:00.024Z,99.90
2018-07-05T02:19:41.605Z,99.90
2018-07-05T02:22:25.289Z,99.90
2018-07-05T02:25:07.720Z,99.90
2018-07-05T02:27:49.902Z,99.90
2018-07-05T02:30:31.512Z,99.90
2018-07-05T02:33:14.101Z,99.90
2018-07-05T02:35:55.504Z,99.90
2018-07-05T02:38:37.103Z,99.90
2018-07-05T02:41:19.414Z,99.90
2018-07-05T02:44:01.162Z,99.90
2018-07-05T02:46:42.836Z,99.90
2018-07-05T02:49:25.306Z,99.90
2018-07-05T02:52:07.961Z,99.90
2018-07-05T02:54:51.031Z,99.90
2018-07-05T02:57:32.568Z,99.90
2018-07-05T03:00:14.087Z,99.90
2018-07-05T03:02:55.607Z,99.90
2018-07-05T03:05:38.252Z,99.90
2018-07-05T03:08:19.715Z,99.90
2018-07-05T03:11:01.301Z,99.90
2018-07-05T03:13:42.980Z,99.90
2018-07-05T03:16:24.563Z,99.90
2018-07-05T03:19:06.142Z,99.90
2018-07-05T03:21:48.037Z,99.90
2018-07-05T03:24:35.459Z,99.90
2018-07-05T03:27:26.380Z,99.90
2018-07-05T03:30:08.069Z,99.90
2018-07-05T03:32:49.853Z,99.90
2018-07-05T03:35:31.404Z,99.90
2018-07-05T03:38:12.988Z,99.90
2018-07-05T03:40:54.615Z,99.90
2018-07-05T03:43:37.170Z,99.90
2018-07-05T03:46:18.670Z,99.90
2018-07-05T03:49:02.385Z,99.90
2018-07-05T03:51:43.857Z,99.90
2018-07-05T03:54:25.530Z,99.90
2018-07-05T03:57:07.136Z,99.90
2018-07-05T03:59:48.780Z,99.90
2018-07-05T04:02:30.170Z,99.90
2018-07-05T04:05:11.686Z,99.90
2018-07-05T04:07:53.960Z,99.90
2018-07-05T04:10:35.712Z,99.90
2018-07-05T04:13:17.179Z,99.90
2018-07-05T04:15:58.676Z,99.90
2018-07-05T04:18:40.203Z,99.90
2018-07-05T04:21:21.699Z,99.90
2018-07-05T04:24:03.091Z,99.90
2018-07-05T04:26:44.651Z,99.90
2018-07-05T04:29:26.177Z,99.90
2018-07-05T04:32:11.236Z,99.90
2018-07-05T04:34:52.851Z,99.90
2018-07-05T04:37:34.304Z,99.90
2018-07-05T04:40:15.804Z,99.90
2018-07-05T04:42:57.577Z,99.90
2018-07-05T04:45:38.877Z,99.90
2018-07-05T04:48:20.240Z,99.90
2018-07-05T04:51:01.597Z,99.90
2018-07-05T04:53:44.750Z,99.90
2018-07-05T04:56:26.155Z,99.90
2018-07-05T04:59:07.732Z,99.90
2018-07-05T05:01:49.158Z,99.90
2018-07-05T05:04:30.439Z,99.90
2018-07-05T05:07:11.864Z,99.90
2018-07-05T05:09:53.692Z,99.90
2018-07-05T05:12:34.934Z,99.90
2018-07-05T05:15:16.535Z,99.90
2018-07-05T05:17:57.826Z,99.90
2018-07-05T05:20:39.208Z,99.90
2018-07-05T05:23:20.614Z,99.90
2018-07-05T05:26:02.131Z,99.90
2018-07-05T05:28:43.553Z,99.90
2018-07-05T05:31:25.220Z,99.90
2018-07-05T05:34:06.445Z,99.90
2018-07-05T05:36:49.656Z,99.90
2018-07-05T05:39:31.037Z,99.90
2018-07-05T05:42:12.474Z,99.90
2018-07-05T05:44:53.768Z,99.90
2018-07-05T05:47:35.255Z,99.90
2018-07-05T05:50:16.609Z,99.90
2018-07-05T05:52:58.199Z,99.90
2018-07-05T05:55:39.645Z,99.90
2018-07-05T05:58:23.147Z,99.90
2018-07-05T06:01:04.557Z,99.90
2018-07-05T06:03:45.899Z,99.90
2018-07-05T06:06:27.344Z,99.90
2018-07-05T06:09:08.948Z,99.90
2018-07-05T06:11:50.575Z,99.90
2018-07-05T06:14:31.804Z,99.90
2018-07-05T06:17:13.182Z,99.90
2018-07-05T06:19:56.726Z,99.90
2018-07-05T06:22:38.093Z,99.90
2018-07-05T06:25:19.483Z,99.90
2018-07-05T06:28:00.712Z,99.90
2018-07-05T06:30:42.077Z,99.90
2018-07-05T06:33:23.262Z,99.90
2018-07-05T06:36:04.659Z,99.90
2018-07-05T06:38:45.955Z,99.90
2018-07-05T06:41:30.678Z,99.90
2018-07-05T06:44:11.951Z,99.90
2018-07-05T06:46:53.967Z,99.90
2018-07-05T06:49:35.305Z,99.90
2018-07-05T06:52:16.667Z,99.90
2018-07-05T06:54:57.853Z,99.90
2018-07-05T06:57:39.248Z,99.90
2018-07-05T07:00:20.996Z,99.90
2018-07-05T07:03:03.622Z,99.90
2018-07-05T07:05:46.820Z,99.90
2018-07-05T07:08:28.659Z,99.90
2018-07-05T07:11:09.931Z,99.90
2018-07-05T07:13:51.727Z,99.90
2018-07-05T07:16:33.183Z,99.90
2018-07-05T07:19:14.500Z,99.90
2018-07-05T07:21:55.883Z,99.90
2018-07-05T07:24:40.536Z,99.90
2018-07-05T07:27:21.941Z,99.90
2018-07-05T07:30:03.338Z,99.90
2018-07-05T07:32:44.554Z,99.90
2018-07-05T07:35:25.848Z,99.90
2018-07-05T07:38:07.141Z,99.90
2018-07-05T07:40:48.532Z,99.90
2018-07-05T07:43:18.032Z,99.90
2018-07-05T07:45:51.338Z,99.90
2018-07-05T07:48:21.493Z,99.90
2018-07-05T07:50:50.810Z,99.90
2018-07-05T07:53:20.025Z,99.90
2018-07-05T07:55:49.326Z,99.90
2018-07-05T07:58:18.594Z,99.90
2018-07-05T08:00:47.824Z,99.90
2018-07-05T08:03:17.084Z,99.90
2018-07-05T08:05:46.380Z,99.90
2018-07-05T08:08:17.567Z,99.90
2018-07-05T08:10:46.799Z,99.90
2018-07-05T08:13:15.998Z,99.90
2018-07-05T08:15:45.814Z,99.90
2018-07-05T08:18:15.057Z,99.90
2018-07-05T08:20:44.274Z,99.90
2018-07-05T08:23:13.519Z,99.90
2018-07-05T08:25:42.848Z,99.90
2018-07-05T08:28:12.118Z,99.90
2018-07-05T08:30:43.307Z,99.90
2018-07-05T08:33:12.493Z,99.90
2018-07-05T08:35:41.729Z,99.90
2018-07-05T08:38:10.939Z,99.90
2018-07-05T08:40:40.095Z,99.90
2018-07-05T08:43:09.363Z,99.90
2018-07-05T08:45:38.617Z,99.90
2018-07-05T08:48:07.782Z,99.90
2018-07-05T08:50:37.044Z,99.90
2018-07-05T08:53:07.873Z,99.90
2018-07-05T08:55:37.170Z,99.90
2018-07-05T08:58:06.409Z,99.90
2018-07-05T09:00:35.658Z,99.90
2018-07-05T09:03:04.934Z,99.90
2018-07-05T09:05:34.143Z,99.90
2018-07-05T09:08:03.417Z,99.90
2018-07-05T09:10:32.636Z,99.90
2018-07-05T09:13:01.907Z,99.90
2018-07-05T09:15:34.348Z,99.90
2018-07-05T09:18:04.650Z,99.90
2018-07-05T09:20:33.891Z,99.90
2018-07-05T09:23:03.211Z,99.90
2018-07-05T09:25:32.493Z,99.90
2018-07-05T09:28:01.687Z,99.90
2018-07-05T09:30:31.316Z,99.90
2018-07-05T09:33:00.549Z,99.90
2018-07-05T09:35:31.807Z,99.90
2018-07-05T09:38:01.080Z,99.90
2018-07-05T09:40:30.328Z,99.90
2018-07-05T09:42:59.578Z,99.90
2018-07-05T09:45:28.893Z,99.90
2018-07-05T09:47:58.155Z,99.90
2018-07-05T09:50:27.392Z,99.90
2018-07-05T09:52:56.776Z,99.90
2018-07-05T09:55:25.981Z,99.90
2018-07-05T09:57:55.477Z,99.90
2018-07-05T10:00:29.261Z,99.90
2018-07-05T10:02:58.452Z,99.90
2018-07-05T10:05:27.630Z,99.90
2018-07-05T10:07:56.814Z,99.90
2018-07-05T10:10:26.072Z,99.90
2018-07-05T10:12:55.471Z,99.90
2018-07-05T10:15:24.733Z,99.90
2018-07-05T10:17:57.654Z,99.90
2018-07-05T10:20:27.531Z,99.90
2018-07-05T10:22:56.746Z,99.90
2018-07-05T10:25:26.007Z,99.90
2018-07-05T10:27:55.221Z,99.90
2018-07-05T10:30:36.533Z,99.90
2018-07-05T10:33:17.771Z,99.90
2018-07-05T10:35:47.029Z,99.90
2018-07-05T10:38:16.458Z,99.90
2018-07-05T10:40:57.813Z,99.90
2018-07-05T10:43:39.189Z,99.90
2018-07-05T10:46:20.479Z,99.90
2018-07-05T10:49:01.887Z,99.90
2018-07-05T10:51:43.390Z,99.90
2018-07-05T10:54:24.749Z,99.90
2018-07-05T10:57:06.328Z,99.90
2018-07-05T10:59:55.786Z,99.90
2018-07-05T11:02:37.070Z,99.90
2018-07-05T11:05:18.379Z,99.90
2018-07-05T11:07:59.766Z,99.90
2018-07-05T11:10:41.506Z,99.90
2018-07-05T11:13:22.924Z,99.90
2018-07-05T11:16:04.340Z,99.90
2018-07-05T11:18:45.721Z,99.90
2018-07-05T11:21:35.593Z,99.90
2018-07-05T11:24:17.140Z,99.90
2018-07-05T11:26:58.611Z,99.90
2018-07-05T11:29:40.067Z,99.90
2018-07-05T11:32:21.495Z,99.90
2018-07-05T11:35:02.739Z,99.90
2018-07-05T11:37:44.109Z,99.90
2018-07-05T11:40:25.389Z,99.90
2018-07-05T11:43:07.370Z,99.90
2018-07-05T11:45:48.631Z,99.90
2018-07-05T11:48:29.806Z,99.90
2018-07-05T11:51:11.048Z,99.90
2018-07-05T11:53:52.259Z,99.90
2018-07-05T11:56:33.626Z,99.90
2018-07-05T11:59:15.123Z,99.90
2018-07-05T12:01:56.504Z,99.90
2018-07-05T12:04:41.115Z,99.90
2018-07-05T12:07:22.445Z,99.90
2018-07-05T12:10:03.733Z,99.90
2018-07-05T12:12:45.176Z,99.90
2018-07-05T12:15:26.480Z,99.90
2018-07-05T12:18:08.278Z,99.90
2018-07-05T12:20:49.579Z,99.90
2018-07-05T12:23:30.985Z,99.90
2018-07-05T12:26:15.413Z,99.90
2018-07-05T12:28:56.734Z,99.90
2018-07-05T12:31:38.065Z,99.90
2018-07-05T12:34:19.468Z,99.90
2018-07-05T12:37:00.722Z,99.90
2018-07-05T12:39:42.327Z,99.90
2018-07-05T12:42:23.986Z,99.90
2018-07-05T12:45:05.386Z,99.90
2018-07-05T12:47:46.868Z,99.90
2018-07-05T12:50:30.530Z,99.90
2018-07-05T12:53:12.676Z,99.90
2018-07-05T12:55:58.490Z,99.90
2018-07-05T12:58:42.021Z,99.90
2018-07-05T13:01:25.185Z,99.90
2018-07-05T13:04:06.714Z,99.90
2018-07-05T13:06:49.988Z,99.90
2018-07-05T13:09:33.206Z,99.90
2018-07-05T13:15:00.806Z,99.90
2018-07-05T13:17:42.081Z,99.90
2018-07-05T13:20:25.694Z,99.90
2018-07-05T13:23:07.792Z,99.90
2018-07-05T13:25:57.248Z,99.90
2018-07-05T13:28:39.058Z,99.90
2018-07-05T13:31:36.861Z,99.90
2018-07-05T13:34:23.093Z,99.90
2018-07-05T13:37:04.603Z,99.90
2018-07-05T13:39:46.620Z,99.90
2018-07-05T13:42:28.250Z,99.90
2018-07-05T13:45:10.174Z,99.90
2018-07-05T13:47:51.499Z,99.90
2018-07-05T13:50:32.947Z,99.90
2018-07-05T13:53:38.013Z,99.90
2018-07-05T13:56:20.179Z,99.90
2018-07-05T13:59:01.569Z,99.90
2018-07-05T14:05:08.481Z,99.90
2018-07-05T14:10:41.713Z,99.90
2018-07-05T14:16:14.397Z,99.90
2018-07-05T14:18:56.756Z,99.90
2018-07-05T14:21:38.265Z,99.90
2018-07-05T14:24:19.841Z,99.90
2018-07-05T14:27:01.316Z,99.90
2018-07-05T14:29:43.362Z,99.90
2018-07-05T14:32:24.729Z,99.90
2018-07-05T14:35:06.023Z,99.90
2018-07-05T14:37:49.729Z,99.90
2018-07-05T14:43:20.442Z,99.90
2018-07-05T14:46:06.994Z,99.90
2018-07-05T14:48:53.800Z,99.90
2018-07-05T14:51:35.244Z,99.90
2018-07-05T14:54:16.634Z,99.90
2018-07-05T14:56:58.302Z,99.90
2018-07-05T14:59:42.099Z,99.70
2018-07-05T15:02:23.840Z,96.70
2018-07-05T15:05:05.889Z,93.20
2018-07-05T15:07:47.755Z,90.60
2018-07-05T15:10:29.265Z,90.80
2018-07-05T15:13:16.430Z,95.50
2018-07-05T15:15:59.894Z,96.80
2018-07-05T15:18:41.559Z,99.90
2018-07-05T15:21:25.897Z,99.90
2018-07-05T15:24:09.892Z,99.90
2018-07-05T15:26:51.239Z,99.90
2018-07-05T15:29:33.428Z,99.90
2018-07-05T15:32:25.522Z,99.90
2018-07-05T15:35:08.751Z,99.90
2018-07-05T15:37:50.275Z,99.90
2018-07-05T15:44:06.940Z,99.90
2018-07-05T15:46:48.986Z,99.90
2018-07-05T15:49:36.736Z,99.90
2018-07-05T15:52:18.957Z,99.90
2018-07-05T15:55:00.786Z,99.90
2018-07-05T15:57:46.116Z,99.90
2018-07-05T16:00:28.605Z,99.90
2018-07-05T16:03:12.193Z,99.90
2018-07-05T16:05:53.892Z,99.90
2018-07-05T16:08:35.913Z,99.90
2018-07-05T16:11:17.107Z,99.90
2018-07-05T16:13:58.493Z,99.90
2018-07-05T16:16:39.980Z,99.90
2018-07-05T16:19:23.028Z,99.90
2018-07-05T16:22:05.148Z,99.90
2018-07-05T16:24:47.273Z,99.90
2018-07-05T16:27:30.677Z,99.90
2018-07-05T16:30:12.016Z,99.90
2018-07-05T16:32:55.333Z,99.90
2018-07-05T16:35:36.896Z,99.90
2018-07-05T16:38:18.413Z,99.90
2018-07-05T16:41:01.035Z,99.90
2018-07-05T16:46:33.058Z,99.90
2018-07-05T16:49:15.198Z,99.90
2018-07-05T16:51:57.357Z,99.90
2018-07-05T16:54:39.733Z,99.90
2018-07-05T16:57:21.311Z,97.90
2018-07-05T17:00:05.047Z,94.60
2018-07-05T17:02:48.409Z,98.20
2018-07-05T17:05:29.812Z,99.90
2018-07-05T17:08:11.226Z,99.90
2018-07-05T17:10:53.042Z,99.30
2018-07-05T17:13:34.710Z,99.00
2018-07-05T17:19:14.885Z,98.20
2018-07-05T17:21:57.312Z,99.90
2018-07-05T17:24:43.243Z,99.90
2018-07-05T17:27:24.687Z,99.90
2018-07-05T17:30:06.309Z,99.90
2018-07-05T17:32:48.325Z,99.90
2018-07-05T17:35:30.496Z,99.90
2018-07-05T17:38:12.233Z,99.90
2018-07-05T17:40:54.622Z,99.90
2018-07-05T17:43:36.379Z,99.90
2018-07-05T17:46:18.689Z,99.90
2018-07-05T17:49:01.267Z,99.90
2018-07-05T17:51:42.784Z,99.90
2018-07-05T17:54:24.393Z,99.90
2018-07-05T17:57:05.694Z,99.90
2018-07-05T17:59:47.909Z,99.90
2018-07-05T18:02:29.418Z,99.90
2018-07-05T18:05:10.778Z,99.90
2018-07-05T18:07:52.290Z,99.90
2018-07-05T18:10:33.595Z,99.90
2018-07-05T18:13:14.981Z,99.90
2018-07-05T18:15:56.456Z,99.90
2018-07-05T18:18:38.019Z,99.90
2018-07-05T18:21:19.666Z,99.90
2018-07-05T18:24:01.157Z,99.90
2018-07-05T18:26:42.630Z,99.90
2018-07-05T18:29:29.373Z,99.90
2018-07-05T18:32:21.365Z,99.90
2018-07-05T18:35:11.328Z,99.90
2018-07-05T18:40:54.165Z,99.90
2018-07-05T18:43:36.206Z,99.90
2018-07-05T18:46:23.696Z,99.90
2018-07-05T18:49:05.074Z,99.90
2018-07-05T18:51:46.645Z,99.90
2018-07-05T18:54:28.246Z,99.90
2018-07-05T18:57:10.846Z,99.90
2018-07-05T18:59:53.751Z,99.90
2018-07-05T19:02:38.795Z,99.90
2018-07-05T19:05:20.227Z,99.90
2018-07-05T19:08:03.130Z,99.90
2018-07-05T19:10:49.578Z,99.90
2018-07-05T19:13:31.102Z,99.90
2018-07-05T19:16:12.652Z,99.90
2018-07-05T19:18:54.162Z,99.90
2018-07-05T19:21:37.801Z,99.90
2018-07-05T19:24:19.886Z,99.90
2018-07-05T19:27:01.194Z,99.90
2018-07-05T19:29:42.588Z,99.90
2018-07-05T19:35:22.451Z,99.90
2018-07-05T19:38:04.719Z,99.90
2018-07-05T19:40:48.640Z,99.90
2018-07-05T19:43:31.799Z,99.90
2018-07-05T19:46:14.588Z,99.90
2018-07-05T19:48:58.393Z,99.90
2018-07-05T19:51:40.949Z,99.90
2018-07-05T19:54:25.103Z,99.90
2018-07-05T19:57:28.032Z,99.90
2018-07-05T20:00:09.825Z,99.90
2018-07-05T20:02:51.813Z,99.90
2018-07-05T20:05:33.465Z,99.90
2018-07-05T20:08:14.939Z,99.90
2018-07-05T20:13:52.417Z,99.90
2018-07-05T20:16:35.388Z,99.90
2018-07-05T20:19:20.223Z,99.90
2018-07-05T20:25:02.285Z,99.90
2018-07-05T20:27:43.717Z,96.90
2018-07-05T20:30:25.641Z,96.10
2018-07-05T20:33:08.538Z,96.10
2018-07-05T20:35:50.300Z,94.80
2018-07-05T20:38:31.776Z,91.20
2018-07-05T20:41:23.683Z,90.70
2018-07-05T20:44:07.144Z,92.60
2018-07-05T20:47:04.851Z,94.00
2018-07-05T20:49:46.798Z,97.50
2018-07-05T20:52:28.926Z,97.20
2018-07-05T20:55:10.547Z,96.10
2018-07-05T20:57:52.018Z,96.90
2018-07-05T21:00:33.850Z,95.80
2018-07-05T21:03:16.345Z,93.80
2018-07-05T21:05:59.036Z,90.00
2018-07-05T21:08:40.557Z,76.10
2018-07-05T21:11:22.160Z,78.60
2018-07-05T21:14:04.139Z,80.90
2018-07-05T21:16:45.484Z,75.10
2018-07-05T21:19:27.880Z,71.70
2018-07-05T21:22:09.344Z,67.80
2018-07-05T21:24:51.465Z,71.50
2018-07-05T21:27:34.513Z,72.50
2018-07-05T21:30:16.776Z,70.70
2018-07-05T21:32:58.150Z,71.50
2018-07-05T21:35:39.611Z,66.90
2018-07-05T21:38:21.825Z,66.30
2018-07-05T21:41:06.505Z,68.00
2018-07-05T21:43:49.640Z,68.40
2018-07-05T21:46:32.180Z,69.10
2018-07-05T21:49:15.082Z,71.80
2018-07-05T21:51:58.162Z,78.50
2018-07-05T21:54:39.555Z,90.00
2018-07-05T21:57:21.591Z,96.40
2018-07-05T22:00:07.604Z,97.20
2018-07-05T22:02:49.173Z,96.30
2018-07-05T22:05:31.728Z,95.50
2018-07-05T22:08:13.531Z,96.60
2018-07-05T22:14:15.690Z,92.70
2018-07-05T22:17:01.575Z,92.20
2018-07-05T22:19:48.752Z,94.50
2018-07-05T22:22:34.631Z,97.50
2018-07-05T22:25:20.640Z,98.10
2018-07-05T22:28:07.323Z,98.10
2018-07-05T22:33:47.798Z,99.90
2018-07-05T22:36:29.398Z,99.90
2018-07-05T22:39:10.715Z,99.90
2018-07-05T22:41:52.678Z,99.90
2018-07-05T22:44:36.690Z,99.90
2018-07-05T22:47:20.339Z,99.90
2018-07-05T22:50:15.472Z,99.90
2018-07-05T22:52:57.053Z,99.90
2018-07-05T22:56:10.324Z,99.90
2018-07-05T22:58:53.657Z,99.90
2018-07-05T23:01:38.151Z,99.90
2018-07-05T23:04:20.983Z,99.90
2018-07-05T23:07:05.649Z,99.90
2018-07-05T23:09:48.034Z,99.90
2018-07-05T23:12:29.443Z,99.90
2018-07-05T23:15:11.539Z,99.90
2018-07-05T23:17:55.526Z,99.90
2018-07-05T23:23:25.450Z,99.90
2018-07-05T23:26:08.823Z,99.90
2018-07-05T23:28:51.932Z,99.90
2018-07-05T23:31:35.233Z,99.90
2018-07-05T23:34:16.701Z,99.90
2018-07-05T23:37:01.480Z,99.90
2018-07-05T23:39:46.235Z,99.90
2018-07-05T23:42:27.825Z,99.90
2018-07-05T23:45:09.564Z,99.90
2018-07-05T23:47:51.399Z,99.90
2018-07-05T23:50:33.161Z,99.90
2018-07-05T23:53:26.813Z,99.90
2018-07-05T23:56:08.692Z,99.90
2018-07-05T23:58:51.181Z,99.90
